Time;durP1;ratioP1;P1;durP2;ratioP2;P2;SDS_P1;SDS_P2;PMS_P1;PMS_P2;Temp;Humidity;BMP_temperature;BMP_pressure;BME280_temperature;BME280_humidity;BME280_pressure;Samples;Min_cycle;Max_cycle;Signal;HPM_P1;HPM_P2
2022/04/23 00:01:54;;;;;;;;;24.25;24.00;;;;;13.78;57.44;99740.91;4969083;28;50374;-70
2022/04/23 00:04:19;;;;;;;;;32.50;29.75;;;;;13.71;57.71;99741.88;4969242;28;49732;-70
2022/04/23 00:06:45;;;;;;;;;27.25;25.00;;;;;13.69;58.57;99741.88;4969312;28;50098;-70
2022/04/23 00:09:10;;;;;;;;;28.75;27.25;;;;;13.54;58.06;99717.41;4958147;28;49737;-70
2022/04/23 00:11:35;;;;;;;;;29.00;26.00;;;;;13.66;58.39;99738.38;4950238;28;50346;-70
2022/04/23 00:14:02;;;;;;;;;28.25;22.75;;;;;13.63;58.36;99733.16;4949995;28;49898;-70
2022/04/23 00:16:27;;;;;;;;;32.00;28.25;;;;;13.46;58.42;99717.44;4950587;28;49815;-69
2022/04/23 00:18:53;;;;;;;;;25.50;25.50;;;;;13.46;58.55;99725.38;4950660;28;50199;-70
2022/04/23 00:21:18;;;;;;;;;24.25;24.25;;;;;13.56;59.11;99731.44;4950137;28;49918;-71
2022/04/23 00:23:46;;;;;;;;;34.50;28.25;;;;;13.36;59.33;99707.88;4950207;28;49688;-70
2022/04/23 00:26:11;;;;;;;;;33.00;31.00;;;;;13.49;58.95;99733.25;4949937;28;49798;-70
2022/04/23 00:28:37;;;;;;;;;26.50;25.75;;;;;13.47;59.16;99729.75;4959166;28;49705;-70
2022/04/23 00:31:04;;;;;;;;;28.50;28.50;;;;;13.43;60.05;99722.75;4968645;28;50729;-70
2022/04/23 00:33:29;;;;;;;;;28.00;27.00;;;;;13.37;59.70;99721.03;4969096;28;49879;-72
2022/04/23 00:35:55;;;;;;;;;30.50;27.75;;;;;13.36;60.46;99721.03;4954681;28;49927;-72
2022/04/23 00:38:20;;;;;;;;;33.00;28.25;;;;;13.33;60.07;99718.44;4949889;28;49785;-71
2022/04/23 00:40:46;;;;;;;;;29.25;28.75;;;;;13.31;60.34;99714.91;4950097;28;50001;-70
2022/04/23 00:43:28;;;;;;;;;27.50;27.50;;;;;13.23;60.41;99707.09;4951794;28;49660;-70
2022/04/23 00:45:55;;;;;;;;;27.50;27.50;;;;;13.01;60.67;99666.78;4950019;28;49967;-70
2022/04/23 00:48:21;;;;;;;;;29.50;25.25;;;;;13.21;60.85;99695.66;4950411;28;50050;-71
2022/04/23 00:50:52;;;;;;;;;35.25;33.25;;;;;13.22;60.65;99707.97;4950116;28;49976;-71
2022/04/23 00:53:19;;;;;;;;;29.00;27.00;;;;;13.18;61.45;99704.44;4950176;28;50077;-71
2022/04/23 00:55:46;;;;;;;;;31.75;31.00;;;;;13.16;61.67;99702.69;4956576;28;49866;-71
2022/04/23 00:58:14;;;;;;;;;32.50;27.75;;;;;13.13;61.27;99700.97;4965416;28;50161;-70
2022/04/23 01:00:40;;;;;;;;;34.00;32.75;;;;;13.01;61.37;99684.34;4968423;28;50431;-70
2022/04/23 01:03:06;;;;;;;;;36.00;33.00;;;;;13.08;61.77;99693.97;4968504;28;49909;-70
2022/04/23 01:05:32;;;;;;;;;30.00;29.25;;;;;13.03;61.47;99685.22;4968570;28;49642;-71
2022/04/23 01:08:00;;;;;;;;;32.00;26.75;;;;;13.04;61.92;99682.56;4968627;28;49760;-70
2022/04/23 01:10:26;;;;;;;;;30.75;30.75;;;;;13.04;61.97;99686.97;4968469;28;50452;-70
2022/04/23 01:12:53;;;;;;;;;33.25;30.00;;;;;12.71;62.13;99633.59;4968269;28;49775;-70
2022/04/23 01:15:21;;;;;;;;;41.00;34.25;;;;;12.38;62.43;99578.53;4968083;28;49750;-71
2022/04/23 01:17:47;;;;;;;;;34.00;31.00;;;;;12.79;62.36;99647.59;4968327;28;49749;-70
2022/04/23 01:20:14;;;;;;;;;32.75;29.75;;;;;12.87;62.67;99664.22;4967953;28;50272;-70
2022/04/23 01:22:44;;;;;;;;;28.50;27.50;;;;;12.72;62.33;99629.19;4968219;28;49736;-70
2022/04/23 01:25:12;;;;;;;;;34.00;32.00;;;;;12.69;62.11;99642.41;4968265;28;49834;-71
2022/04/23 01:27:39;;;;;;;;;29.25;26.25;;;;;12.76;62.80;99652.03;4968457;28;50003;-71
2022/04/23 01:30:07;;;;;;;;;26.25;25.00;;;;;12.85;62.53;99671.28;4967921;28;50628;-71
2022/04/23 01:32:32;;;;;;;;;34.00;31.00;;;;;12.75;63.23;99663.44;4967860;28;49843;-70
2022/04/23 01:34:58;;;;;;;;;28.25;25.25;;;;;12.76;63.02;99659.91;4968115;28;49749;-70
2022/04/23 01:37:24;;;;;;;;;31.75;30.50;;;;;12.77;63.07;99670.44;4968149;28;49898;-71
2022/04/23 01:39:49;;;;;;;;;31.25;30.75;;;;;12.68;62.86;99652.06;4966903;28;50047;-71
2022/04/23 01:42:17;;;;;;;;;34.00;27.50;;;;;12.82;63.18;99668.63;4968313;28;49704;-71
2022/04/23 01:44:48;;;;;;;;;34.25;32.75;;;;;12.80;63.00;99670.41;4961810;28;49899;-72
2022/04/23 01:47:14;;;;;;;;;32.25;30.25;;;;;12.76;62.52;99659.91;4968178;28;49681;-71
2022/04/23 01:49:40;;;;;;;;;32.50;31.50;;;;;12.55;62.73;99617.03;4966557;28;49890;-72
2022/04/23 01:52:06;;;;;;;;;33.50;31.50;;;;;12.84;62.60;99663.38;4955598;28;49745;-72
2022/04/23 01:54:32;;;;;;;;;30.50;28.00;;;;;12.37;62.37;99582.03;4949118;28;49809;-71
2022/04/23 01:56:58;;;;;;;;;33.00;29.75;;;;;12.85;61.83;99660.75;4949192;28;49701;-71
2022/04/23 01:59:24;;;;;;;;;33.25;31.50;;;;;12.78;62.21;99645.84;4948842;28;50426;-71
2022/04/23 02:01:49;;;;;;;;;36.25;30.25;;;;;12.84;61.99;99659.00;4949052;28;49698;-71
2022/04/23 02:04:15;;;;;;;;;37.00;31.50;;;;;12.84;61.95;99656.38;4948942;28;49914;-71
2022/04/23 02:06:40;;;;;;;;;33.75;32.25;;;;;12.83;62.45;99662.47;4949286;28;50199;-71
2022/04/23 02:09:06;;;;;;;;;34.00;31.75;;;;;12.59;62.39;99615.25;4948809;28;50356;-71
2022/04/23 02:11:31;;;;;;;;;31.25;28.75;;;;;12.77;62.17;99648.50;4948957;28;49885;-71
2022/04/23 02:13:57;;;;;;;;;32.25;30.25;;;;;12.81;62.38;99644.94;4948561;28;49791;-71
2022/04/23 02:16:22;;;;;;;;;34.00;32.00;;;;;12.82;62.71;99651.97;4949165;28;49803;-71
2022/04/23 02:18:47;;;;;;;;;33.50;32.75;;;;;12.82;62.30;99649.34;4948752;28;50485;-72
2022/04/23 02:21:13;;;;;;;;;35.50;32.75;;;;;12.68;62.23;99628.34;4948916;28;49650;-71
2022/04/23 02:23:38;;;;;;;;;35.75;33.75;;;;;12.62;62.28;99623.13;4948860;28;49883;-70
2022/04/23 02:26:05;;;;;;;;;34.25;30.25;;;;;12.79;62.12;99646.72;4948812;28;49800;-72
2022/04/23 02:28:31;;;;;;;;;35.25;34.00;;;;;12.31;62.15;99559.25;4948281;28;50417;-72
2022/04/23 02:30:57;;;;;;;;;31.00;29.75;;;;;12.78;62.13;99650.25;4948465;28;49979;-70
2022/04/23 02:33:22;;;;;;;;;34.25;31.00;;;;;12.59;62.19;99616.13;4948528;28;49643;-70
2022/04/23 02:35:48;;;;;;;;;41.75;35.25;;;;;12.74;62.06;99646.78;4948709;28;50003;-70
2022/04/23 02:38:16;;;;;;;;;37.00;35.00;;;;;12.70;61.72;99650.28;4948455;28;51229;-70
2022/04/23 02:40:41;;;;;;;;;36.50;34.25;;;;;12.70;62.24;99633.63;4948749;28;49862;-70
2022/04/23 02:43:08;;;;;;;;;36.75;33.75;;;;;12.25;61.99;99561.91;4948553;28;50189;-70
2022/04/23 02:45:36;;;;;;;;;32.50;28.50;;;;;12.69;62.53;99626.59;4948567;28;49788;-70
2022/04/23 02:48:01;;;;;;;;;36.75;33.50;;;;;12.56;62.59;99625.81;4948115;28;49550;-70
2022/04/23 02:50:28;;;;;;;;;37.25;32.75;;;;;12.65;62.48;99625.75;4948327;28;49798;-70
2022/04/23 02:52:55;;;;;;;;;33.00;31.50;;;;;12.61;62.39;99622.25;4948124;28;50157;-70
2022/04/23 02:55:22;;;;;;;;;33.50;31.75;;;;;12.61;62.31;99616.97;4948444;28;49697;-70
2022/04/23 02:57:48;;;;;;;;;37.00;34.25;;;;;12.50;62.75;99602.13;4948015;28;49851;-69
2022/04/23 03:00:13;;;;;;;;;35.25;34.00;;;;;12.37;62.72;99575.00;4948462;28;49844;-70
2022/04/23 03:02:39;;;;;;;;;31.50;31.50;;;;;12.51;62.75;99594.22;4951462;28;49733;-70
2022/04/23 03:05:06;;;;;;;;;33.25;30.50;;;;;12.58;62.63;99611.75;4951362;28;49912;-70
2022/04/23 03:07:32;;;;;;;;;39.00;33.25;;;;;12.20;62.91;99553.16;4951106;28;50226;-70
2022/04/23 03:09:58;;;;;;;;;31.75;29.25;;;;;12.51;63.09;99607.38;4951090;28;49839;-70
2022/04/23 03:12:24;;;;;;;;;33.75;28.00;;;;;12.45;63.26;99588.09;4950906;28;49838;-70
2022/04/23 03:14:49;;;;;;;;;30.75;27.00;;;;;12.53;62.85;99621.41;4951017;28;49819;-70
2022/04/23 03:17:14;;;;;;;;;31.75;30.50;;;;;12.39;62.98;99590.78;4950752;28;55879;-70
2022/04/23 03:19:39;;;;;;;;;42.25;34.00;;;;;12.21;63.38;99571.56;4951154;28;50084;-71
2022/04/23 03:22:05;;;;;;;;;34.75;31.50;;;;;12.35;63.88;99600.44;4951192;28;49768;-70
2022/04/23 03:24:30;;;;;;;;;30.75;30.75;;;;;12.34;64.01;99601.31;4951303;28;49542;-70
2022/04/23 03:26:55;;;;;;;;;34.75;31.50;;;;;12.33;64.09;99600.44;4950325;28;53960;-70
2022/04/23 03:29:21;;;;;;;;;20.25;16.50;;;;;11.37;63.90;99445.66;4950641;28;49818;-70
2022/04/23 03:31:48;;;;;;;;;34.25;29.50;;;;;12.32;63.64;99597.84;4950953;28;50362;-70
2022/04/23 03:34:14;;;;;;;;;28.50;28.25;;;;;12.24;64.21;99583.84;4958974;28;49841;-70
2022/04/23 03:36:39;;;;;;;;;26.50;23.00;;;;;12.04;64.05;99553.22;4969528;28;50615;-72
2022/04/23 03:39:05;;;;;;;;;33.75;30.50;;;;;12.08;64.61;99564.63;4969691;28;49719;-72
2022/04/23 03:41:30;;;;;;;;;31.50;26.75;;;;;12.22;64.54;99586.47;4969733;28;49827;-71
2022/04/23 03:43:55;;;;;;;;;24.50;22.50;;;;;11.92;64.86;99555.03;4969444;28;49632;-72
2022/04/23 03:46:21;;;;;;;;;35.00;31.25;;;;;12.13;64.69;99585.66;4956834;28;51674;-71
2022/04/23 03:48:46;;;;;;;;;29.75;28.50;;;;;12.07;65.19;99572.53;4950317;28;49695;-72
2022/04/23 03:51:12;;;;;;;;;32.00;32.00;;;;;12.10;64.90;99573.38;4950742;28;49730;-71
2022/04/23 03:53:37;;;;;;;;;28.50;28.50;;;;;12.04;65.04;99570.75;4950843;28;49961;-72
2022/04/23 03:56:03;;;;;;;;;32.25;28.75;;;;;12.02;65.24;99568.16;4950266;28;50543;-71
2022/04/23 03:58:28;;;;;;;;;36.25;34.00;;;;;11.94;65.52;99569.06;4950456;28;49732;-69
2022/04/23 04:00:54;;;;;;;;;31.25;30.00;;;;;11.76;65.98;99548.91;4950793;28;50014;-70
2022/04/23 04:03:19;;;;;;;;;33.50;29.75;;;;;11.78;66.30;99549.81;4966897;28;50314;-70
2022/04/23 04:05:47;;;;;;;;;31.25;28.00;;;;;11.82;66.81;99563.84;4968698;28;50304;-70
2022/04/23 04:08:13;;;;;;;;;28.00;26.25;;;;;11.86;66.17;99560.31;4968971;28;49657;-69
2022/04/23 04:10:38;;;;;;;;;29.00;29.00;;;;;11.70;66.12;99531.44;4969004;28;49892;-73
2022/04/23 04:13:04;;;;;;;;;26.75;24.75;;;;;11.86;66.48;99569.06;4968467;28;49838;-71
2022/04/23 04:15:29;;;;;;;;;23.50;21.75;;;;;11.79;66.60;99559.44;4968776;28;49691;-71
2022/04/23 04:17:55;;;;;;;;;27.75;27.25;;;;;11.82;66.35;99561.22;4969208;28;49700;-71
2022/04/23 04:20:22;;;;;;;;;27.25;27.00;;;;;11.82;66.63;99558.59;4968968;28;49803;-71
2022/04/23 04:22:47;;;;;;;;;26.25;25.75;;;;;11.71;67.02;99551.59;4968502;28;50037;-71
2022/04/23 04:25:13;;;;;;;;;28.25;25.25;;;;;11.68;67.34;99553.34;4968626;28;50222;-71
2022/04/23 04:27:39;;;;;;;;;38.00;30.50;;;;;11.70;67.55;99564.72;4961396;28;50129;-71
2022/04/23 04:30:07;;;;;;;;;38.25;33.50;;;;;11.72;67.51;99562.97;4950181;28;49749;-71
2022/04/23 04:32:32;;;;;;;;;38.75;34.25;;;;;11.73;67.01;99562.09;4950644;28;49828;-71
2022/04/23 04:34:57;;;;;;;;;34.25;25.25;;;;;11.61;67.29;99549.84;4961783;28;51237;-71
2022/04/23 04:37:23;;;;;;;;;36.00;34.00;;;;;11.53;67.73;99538.50;4968726;28;49668;-71
2022/04/23 04:39:48;;;;;;;;;29.50;28.00;;;;;11.60;67.44;99565.63;4968711;28;49743;-71
2022/04/23 04:42:14;;;;;;;;;30.00;24.00;;;;;11.41;67.75;99549.03;4968949;28;49962;-70
2022/04/23 04:44:41;;;;;;;;;31.00;28.50;;;;;11.49;67.85;99551.66;4968544;28;50307;-71
2022/04/23 04:47:08;;;;;;;;;36.75;34.25;;;;;11.44;68.14;99536.75;4948771;28;50460;-71
2022/04/23 04:49:34;;;;;;;;;35.00;30.00;;;;;11.52;68.28;99556.91;4955889;28;49725;-71
2022/04/23 04:51:59;;;;;;;;;28.50;27.50;;;;;11.49;68.83;99557.78;4969022;28;49794;-71
2022/04/23 04:54:24;;;;;;;;;30.25;27.75;;;;;11.50;68.20;99558.66;4967951;28;56520;-71
2022/04/23 04:56:51;;;;;;;;;29.50;29.25;;;;;11.55;68.46;99564.75;4968387;28;49600;-70
2022/04/23 04:59:16;;;;;;;;;31.50;30.50;;;;;11.40;68.17;99536.78;4968675;28;50026;-71
2022/04/23 05:01:42;;;;;;;;;31.25;26.50;;;;;11.55;68.42;99559.50;4968369;28;49597;-71
2022/04/23 05:04:07;;;;;;;;;35.00;30.50;;;;;11.52;68.12;99554.25;4968318;28;50277;-70
2022/04/23 05:06:33;;;;;;;;;33.25;31.00;;;;;11.36;68.54;99537.66;4968448;28;49908;-71
2022/04/23 05:08:58;;;;;;;;;33.50;31.00;;;;;11.51;68.93;99552.53;4968548;28;50075;-71
2022/04/23 05:11:24;;;;;;;;;27.25;23.50;;;;;11.58;68.67;99557.75;4968691;28;49928;-70
2022/04/23 05:13:50;;;;;;;;;34.00;31.75;;;;;11.51;68.95;99556.03;4968085;28;50775;-71
2022/04/23 05:16:15;;;;;;;;;36.50;33.00;;;;;11.57;68.86;99557.75;4968050;28;49876;-71
2022/04/23 05:18:41;;;;;;;;;32.25;32.25;;;;;11.53;69.06;99559.50;4949616;28;50504;-71
2022/04/23 05:21:06;;;;;;;;;29.00;29.00;;;;;11.26;69.18;99512.28;4949904;28;49673;-71
2022/04/23 05:23:31;;;;;;;;;34.50;31.00;;;;;11.54;69.23;99561.25;4949462;28;50264;-71
2022/04/23 05:25:57;;;;;;;;;28.00;24.25;;;;;11.43;69.16;99548.16;4949454;28;49539;-71
2022/04/23 05:28:23;;;;;;;;;28.75;26.75;;;;;11.59;68.92;99567.41;4949617;28;49676;-71
2022/04/23 05:30:48;;;;;;;;;30.75;29.50;;;;;11.58;68.32;99556.84;4949620;28;49801;-71
2022/04/23 05:33:14;;;;;;;;;34.75;33.00;;;;;11.11;69.27;99485.16;4949659;28;50708;-71
2022/04/23 05:35:39;;;;;;;;;33.50;32.75;;;;;11.62;68.66;99550.72;4979922;28;49856;-71
2022/04/23 05:38:05;;;;;;;;;31.75;26.75;;;;;11.55;68.97;99546.38;4950377;27;50704;-71
2022/04/23 05:40:31;;;;;;;;;31.00;29.00;;;;;11.64;68.67;99548.97;4950353;28;49784;-71
2022/04/23 05:42:59;;;;;;;;;38.00;29.50;;;;;11.61;67.89;99533.22;4950345;28;50774;-71
2022/04/23 05:45:26;;;;;;;;;36.00;34.00;;;;;11.85;68.28;99548.94;4956207;28;49869;-71
2022/04/23 05:47:52;;;;;;;;;36.25;34.00;;;;;11.91;67.55;99548.03;4961222;28;49630;-72
2022/04/23 05:50:17;;;;;;;;;32.00;28.50;;;;;11.81;67.23;99515.66;4952985;28;49720;-71
2022/04/23 05:52:43;;;;;;;;;30.50;30.25;;;;;12.04;66.82;99533.94;4964563;28;51572;-71
2022/04/23 05:55:09;;;;;;;;;31.00;29.00;;;;;12.04;66.66;99523.41;4960882;28;49791;-71
2022/04/23 05:57:34;;;;;;;;;32.50;29.75;;;;;12.14;66.75;99526.88;4959771;28;49815;-71
2022/04/23 06:00:00;;;;;;;;;29.00;27.00;;;;;12.25;66.09;99536.47;4954180;28;49897;-71
2022/04/23 06:02:25;;;;;;;;;32.50;28.00;;;;;12.13;66.08;99507.59;4957996;28;50063;-71
2022/04/23 06:04:51;;;;;;;;;37.00;30.00;;;;;12.35;65.49;99529.38;4956927;28;50331;-71
2022/04/23 06:07:16;;;;;;;;;29.75;27.00;;;;;12.41;65.60;99521.47;4953060;28;50003;-71
2022/04/23 06:09:42;;;;;;;;;28.50;28.50;;;;;12.35;65.42;99521.50;4957224;28;49640;-71
2022/04/23 06:12:08;;;;;;;;;31.50;28.25;;;;;12.56;64.87;99538.94;4960564;28;49752;-71
2022/04/23 06:14:33;;;;;;;;;28.00;27.75;;;;;12.64;63.98;99534.47;4957719;28;49955;-71
2022/04/23 06:16:59;;;;;;;;;36.75;32.25;;;;;12.63;64.08;99521.31;4949701;28;50299;-71
2022/04/23 06:19:24;;;;;;;;;30.50;27.00;;;;;12.63;64.17;99530.09;4960336;28;49792;-71
2022/04/23 06:21:50;;;;;;;;;39.00;36.50;;;;;12.61;64.14;99531.84;4953263;28;49918;-71
2022/04/23 06:24:15;;;;;;;;;30.75;29.25;;;;;12.73;63.99;99533.53;4956723;28;49763;-72
2022/04/23 06:26:41;;;;;;;;;30.75;28.25;;;;;12.87;63.46;99544.84;4949855;28;50080;-71
2022/04/23 06:29:06;;;;;;;;;29.75;28.75;;;;;12.84;62.66;99527.31;4965226;28;50147;-71
2022/04/23 06:31:32;;;;;;;;;29.25;28.75;;;;;12.98;62.03;99545.63;4947807;28;50428;-73
2022/04/23 06:33:57;;;;;;;;;36.25;34.75;;;;;13.11;62.14;99557.78;4949401;28;49906;-66
2022/04/23 06:36:22;;;;;;;;;34.25;33.50;;;;;12.96;62.24;99539.50;4950311;28;49939;-72
2022/04/23 06:38:48;;;;;;;;;30.75;28.00;;;;;13.15;62.14;99558.66;4951368;28;49680;-76
2022/04/23 06:41:14;;;;;;;;;39.75;34.50;;;;;12.67;61.96;99473.91;4950894;28;52219;-76
2022/04/23 06:43:39;;;;;;;;;33.75;32.00;;;;;13.31;60.96;99569.94;4956890;28;49803;-73
2022/04/23 06:46:04;;;;;;;;;32.75;29.75;;;;;13.42;61.42;99558.44;4950210;28;49910;-75
2022/04/23 06:48:30;;;;;;;;;37.25;32.00;;;;;13.23;60.59;99505.91;4962721;28;49775;-75
2022/04/23 06:50:55;;;;;;;;;36.00;32.25;;;;;13.58;60.59;99553.00;4961945;28;50489;-72
2022/04/23 06:53:21;;;;;;;;;34.25;32.25;;;;;13.41;60.26;99503.97;4975667;28;49700;-73
2022/04/23 06:55:46;;;;;;;;;25.25;25.25;;;;;13.39;59.67;99507.50;4963302;28;50074;-73
2022/04/23 06:58:11;;;;;;;;;40.50;34.00;;;;;12.85;59.54;99364.88;4963446;28;49986;-72
2022/04/23 07:00:41;;;;;;;;;34.75;31.25;;;;;13.72;59.41;99517.69;4958123;28;50877;-72
2022/04/23 07:03:06;;;;;;;;;33.25;31.50;;;;;13.55;59.54;99447.56;4961065;28;50120;-73
2022/04/23 07:05:32;;;;;;;;;29.00;29.00;;;;;14.39;58.45;99554.66;4964528;28;51493;-84
2022/04/23 07:07:58;;;;;;;;;35.50;30.75;;;;;14.31;58.07;99555.63;4965291;28;49578;-87
2022/04/23 07:10:26;;;;;;;;;32.75;26.50;;;;;14.22;57.99;99554.88;4961878;28;50871;-74
2022/04/23 07:12:52;;;;;;;;;33.50;31.75;;;;;13.84;58.36;99521.06;4959124;28;49796;-76
2022/04/23 07:15:19;;;;;;;;;33.25;31.50;;;;;13.49;58.69;99484.53;4967544;28;49651;-73
2022/04/23 07:17:45;;;;;;;;;33.25;29.25;;;;;13.62;58.82;99494.94;4968128;28;49796;-72
2022/04/23 07:20:11;;;;;;;;;33.00;29.75;;;;;13.73;58.48;99476.34;4998822;27;50322;-73
2022/04/23 07:22:36;;;;;;;;;25.25;25.25;;;;;14.37;57.60;99548.50;4955891;28;49740;-76
2022/04/23 07:25:02;;;;;;;;;30.75;27.75;;;;;14.40;57.64;99522.06;4953058;28;49711;-73
2022/04/23 07:27:27;;;;;;;;;36.00;32.50;;;;;14.18;56.78;99479.25;4951094;28;49586;-78
2022/04/23 07:29:53;;;;;;;;;35.75;31.75;;;;;14.45;56.91;99501.78;4950812;28;50511;-77
2022/04/23 07:32:20;;;;;;;;;40.00;34.50;;;;;14.01;56.64;99421.47;4953574;28;49823;-78
2022/04/23 07:37:30;;;;;;;;;33.00;32.00;;;;;14.48;56.22;99489.41;4961444;28;49760;-76
2022/04/23 07:40:05;;;;;;;;;34.00;32.75;;;;;14.76;56.07;99526.81;4958548;28;49938;-76
2022/04/23 07:42:32;;;;;;;;;30.75;30.25;;;;;14.86;55.86;99539.00;4950671;28;50095;-75
2022/04/23 07:44:58;;;;;;;;;38.25;32.75;;;;;15.00;56.19;99527.31;4978072;28;49473;-76
2022/04/23 07:47:23;;;;;;;;;37.00;34.50;;;;;14.64;55.56;99457.47;4955768;28;49678;-77
2022/04/23 07:49:49;;;;;;;;;36.75;33.50;;;;;14.70;55.56;99471.44;4952165;28;50079;-76
2022/04/23 07:52:15;;;;;;;;;33.50;31.50;;;;;14.85;55.14;99481.75;4958866;28;49598;-73
2022/04/23 07:54:41;;;;;;;;;37.50;33.25;;;;;15.24;55.43;99537.47;4960323;28;49652;-66
2022/04/23 07:57:08;;;;;;;;;38.50;34.00;;;;;15.25;55.19;99533.03;5040308;27;49753;-71
2022/04/23 07:59:33;;;;;;;;;29.00;29.00;;;;;15.20;54.71;99512.00;4994110;27;49776;-71
2022/04/23 08:02:01;;;;;;;;;32.25;30.00;;;;;15.37;54.45;99528.44;4950321;28;50014;-67
2022/04/23 08:04:26;;;;;;;;;33.00;31.50;;;;;15.30;54.18;99518.84;4960268;28;49853;-69
2022/04/23 08:06:52;;;;;;;;;32.75;31.00;;;;;15.44;54.47;99529.16;4957178;28;49784;-69
2022/04/23 08:09:17;;;;;;;;;41.25;37.50;;;;;15.48;54.55;99524.72;4970820;28;49791;-68
2022/04/23 08:11:42;;;;;;;;;31.75;28.25;;;;;15.48;54.61;99509.72;4973691;27;49824;-72
2022/04/23 08:14:08;;;;;;;;;37.50;34.00;;;;;15.48;54.70;99472.69;4967344;28;49734;-71
2022/04/23 08:16:33;;;;;;;;;35.25;31.75;;;;;15.83;53.88;99510.84;4967419;28;49873;-71
2022/04/23 08:18:59;;;;;;;;;34.00;29.25;;;;;15.82;53.84;99519.66;4969567;28;49913;-69
2022/04/23 08:21:24;;;;;;;;;36.25;31.25;;;;;15.86;53.84;99518.69;4971125;28;49668;-66
2022/04/23 08:23:50;;;;;;;;;33.00;32.00;;;;;15.96;54.04;99518.47;4968439;28;49774;-67
2022/04/23 08:26:15;;;;;;;;;28.25;28.25;;;;;16.10;52.90;99515.53;4969076;28;49974;-69
2022/04/23 08:31:25;;;;;;;;;44.00;35.00;;;;;16.10;53.40;99512.88;4951259;28;49698;-67
2022/04/23 08:33:59;;;;;;;;;36.75;33.25;;;;;15.88;52.90;99456.88;4950062;28;49808;-67
2022/04/23 08:36:35;;;;;;;;;34.50;32.25;;;;;16.16;52.70;99496.88;4950157;28;49845;-69
2022/04/23 08:39:04;;;;;;;;;40.25;35.25;;;;;16.07;52.96;99472.38;4949804;28;50075;-70
2022/04/23 08:41:31;;;;;;;;;33.75;29.50;;;;;16.06;53.04;99455.63;4950146;28;49887;-71
2022/04/23 08:43:58;;;;;;;;;35.25;32.50;;;;;16.37;52.88;99500.81;4950282;28;50054;-67
2022/04/23 08:46:26;;;;;;;;;47.50;37.00;;;;;16.33;52.33;99487.69;4964787;28;49893;-83
2022/04/23 08:49:08;;;;;;;;;38.25;34.00;;;;;16.03;53.18;99421.28;4956505;28;51312;-78
2022/04/23 08:51:35;;;;;;;;;25.00;23.75;;;;;16.40;52.16;99465.44;4954041;28;49723;-73
2022/04/23 08:54:19;;;;;;;;;36.50;34.50;;;;;16.20;52.14;99419.09;4949915;28;49592;-72
2022/04/23 08:56:45;;;;;;;;;37.75;34.00;;;;;16.89;51.73;99504.91;4950188;28;49894;-72
2022/04/23 08:59:12;;;;;;;;;37.75;35.00;;;;;16.95;51.93;99504.75;4953930;28;50289;-69
2022/04/23 09:01:38;;;;;;;;;37.50;35.25;;;;;16.93;51.81;99500.41;4949810;28;49679;-70
2022/04/23 09:04:06;;;;;;;;;38.25;32.25;;;;;17.02;51.46;99494.88;4949578;28;49809;-76
2022/04/23 09:06:39;;;;;;;;;35.00;33.75;;;;;17.04;50.99;99498.34;4950175;28;49870;-77
2022/04/23 09:09:10;;;;;;;;;15.75;15.75;;;;;17.13;51.07;99506.94;4949523;28;49784;-71
2022/04/23 09:11:39;;;;;;;;;38.25;34.25;;;;;17.07;51.55;99504.44;4949816;28;49794;-74
2022/04/23 09:14:06;;;;;;;;;39.25;34.25;;;;;17.00;51.29;99499.34;4949639;28;49967;-70
2022/04/23 09:25:07;;;;;;;;;42.00;35.25;;;;;17.40;50.94;99491.22;4949491;28;49633;-73
2022/04/23 09:27:34;;;;;;;;;27.25;25.00;;;;;17.53;50.99;99486.44;4949494;28;49820;-73
2022/04/23 09:30:02;;;;;;;;;34.50;33.75;;;;;17.70;50.64;99497.47;4948823;28;50745;-71
2022/04/23 09:32:28;;;;;;;;;34.75;32.50;;;;;17.74;50.61;99486.72;4949383;28;49851;-73
2022/04/23 09:35:11;;;;;;;;;29.75;29.75;;;;;17.81;50.27;99482.13;4949335;28;49905;-71
2022/04/23 09:40:24;;;;;;;;;40.25;34.50;;;;;18.03;50.17;99477.91;4949384;28;50294;-72
2022/04/23 09:43:01;;;;;;;;;32.50;30.25;;;;;18.09;50.06;99494.56;4949386;28;49887;-72
2022/04/23 09:45:29;;;;;;;;;35.50;32.00;;;;;18.16;49.34;99475.75;4949215;28;50076;-72
2022/04/23 09:47:55;;;;;;;;;30.25;30.25;;;;;18.21;49.63;99473.81;4949348;28;49851;-73
2022/04/23 09:50:21;;;;;;;;;30.75;29.00;;;;;18.17;49.10;99458.91;4949052;28;49688;-72
2022/04/23 09:52:46;;;;;;;;;31.00;28.75;;;;;18.10;49.18;99444.06;4949020;28;49817;-72
2022/04/23 09:55:12;;;;;;;;;33.50;28.75;;;;;18.22;49.11;99490.63;4949139;28;49732;-71
2022/04/23 09:57:38;;;;;;;;;38.00;33.75;;;;;18.30;49.17;99491.25;4949780;28;50031;-68
2022/04/23 10:00:07;;;;;;;;;37.50;31.25;;;;;18.31;49.22;99453.16;4948617;28;50443;-69
2022/04/23 10:02:34;;;;;;;;;39.50;33.50;;;;;18.78;48.06;99480.88;4948929;28;49656;-68
2022/04/23 10:05:02;;;;;;;;;33.00;31.75;;;;;18.86;47.67;99475.31;4948873;28;49833;-67
2022/04/23 10:07:29;;;;;;;;;35.75;29.75;;;;;19.01;47.25;99480.13;4949162;28;49671;-67
2022/04/23 10:10:02;;;;;;;;;35.25;32.00;;;;;19.12;47.12;99485.09;4962441;28;50936;-68
2022/04/23 10:12:32;;;;;;;;;29.50;28.00;;;;;18.95;47.39;99477.69;4955068;28;50081;-69
2022/04/23 10:15:00;;;;;;;;;31.75;27.75;;;;;18.88;47.15;99478.78;4963310;28;50012;-69
2022/04/23 10:17:28;;;;;;;;;30.50;29.25;;;;;18.90;47.28;99494.69;4956088;28;49840;-69
2022/04/23 10:19:54;;;;;;;;;31.00;29.50;;;;;18.87;47.28;99477.06;4960887;28;49594;-69
2022/04/23 10:22:27;;;;;;;;;31.00;29.25;;;;;18.88;46.91;99479.66;4962783;28;49713;-71
2022/04/23 10:25:30;;;;;;;;;32.50;30.75;;;;;18.97;47.00;99475.81;4964494;28;49766;-71
2022/04/23 10:27:57;;;;;;;;;36.00;31.75;;;;;19.02;46.73;99470.38;4962164;28;49759;-71
2022/04/23 10:30:29;;;;;;;;;31.50;31.50;;;;;19.07;46.05;99458.63;4957154;28;49816;-74
2022/04/23 10:32:54;;;;;;;;;33.75;30.50;;;;;19.08;46.61;99478.97;4961808;28;49750;-68
2022/04/23 10:35:19;;;;;;;;;38.25;33.50;;;;;19.16;47.02;99478.72;4962265;28;49964;-70
2022/04/23 10:37:48;;;;;;;;;35.50;30.50;;;;;19.20;46.87;99477.69;4962639;28;49880;-72
2022/04/23 10:40:18;;;;;;;;;33.50;30.25;;;;;19.19;46.64;99460.00;4961795;28;51517;-75
2022/04/23 10:43:09;;;;;;;;;26.25;25.75;;;;;19.21;46.88;99470.59;4960677;28;49743;-77
2022/04/23 10:45:35;;;;;;;;;29.50;29.50;;;;;18.24;46.63;99294.91;4962084;28;49847;-75
2022/04/23 10:48:19;;;;;;;;;37.00;33.50;;;;;19.51;46.76;99476.63;4966409;28;49673;-75
2022/04/23 10:51:20;;;;;;;;;29.00;28.75;;;;;19.60;46.44;99468.34;4966836;28;50607;-76
2022/04/23 10:53:48;;;;;;;;;32.00;31.50;;;;;19.81;46.04;99453.38;4973780;28;49703;-80
2022/04/23 10:56:16;;;;;;;;;29.50;29.50;;;;;19.77;46.05;99460.56;4967019;28;49676;-69
2022/04/23 10:58:41;;;;;;;;;33.75;31.25;;;;;19.90;46.10;99458.34;4967145;28;49923;-67
2022/04/23 11:01:23;;;;;;;;;33.25;30.00;;;;;19.78;46.17;99464.97;4966285;28;50568;-68
2022/04/23 11:03:55;;;;;;;;;31.00;29.75;;;;;19.78;46.04;99464.09;4966809;28;49772;-66
2022/04/23 11:12:37;;;;;;;;;37.00;31.75;;;;;20.15;45.29;99443.13;4954443;28;49725;-71
2022/04/23 11:15:15;;;;;;;;;23.00;21.25;;;;;20.08;45.80;99419.47;4947926;28;49982;-71
2022/04/23 11:17:41;;;;;;;;;26.25;25.50;;;;;20.13;45.77;99454.78;4947602;28;49772;-71
2022/04/23 11:20:09;;;;;;;;;33.50;31.50;;;;;19.99;46.14;99444.69;4947865;28;49671;-70
2022/04/23 11:22:35;;;;;;;;;27.25;27.25;;;;;19.92;46.67;99424.53;4949909;28;50529;-71
2022/04/23 11:25:00;;;;;;;;;34.25;31.00;;;;;20.24;46.90;99458.75;4953386;28;49738;-68
2022/04/23 11:27:36;;;;;;;;;32.00;29.00;;;;;20.29;46.12;99447.94;4955465;28;49691;-70
2022/04/23 11:30:05;;;;;;;;;32.25;30.00;;;;;20.25;46.18;99443.63;4953383;28;49818;-67
2022/04/23 11:32:36;;;;;;;;;27.25;26.75;;;;;19.95;46.15;99422.59;4961677;28;49970;-67
2022/04/23 11:35:04;;;;;;;;;30.00;29.25;;;;;19.94;46.57;99434.19;4976958;27;49813;-66
2022/04/23 11:37:34;;;;;;;;;26.00;24.50;;;;;19.76;46.46;99413.56;4950814;28;49802;-70
2022/04/23 11:40:08;;;;;;;;;28.25;27.25;;;;;19.88;46.91;99421.13;4950553;28;50026;-69